sensor_id;sensor_type;location;lat;lon;timestamp;pressure;altitude;pressure_sealevel;temperature;humidity
20710;BME280;10516;51.518;9.864;2023-05-29T00:00:32;99192.66;;;14.22;68.67
20710;BME280;10516;51.518;9.864;2023-05-29T00:02:58;99189.94;;;14.07;69.03
20710;BME280;10516;51.518;9.864;2023-05-29T00:05:24;99199.84;;;13.54;71.04
20710;BME280;10516;51.518;9.864;2023-05-29T00:07:49;99205.81;;;13.62;71.04
20710;BME280;10516;51.518;9.864;2023-05-29T00:10:16;99202.06;;;13.68;71.02
20710;BME280;10516;51.518;9.864;2023-05-29T00:12:41;99189.66;;;13.57;70.86
20710;BME280;10516;51.518;9.864;2023-05-29T00:15:08;99200.47;;;13.67;71.03
20710;BME280;10516;51.518;9.864;2023-05-29T00:17:36;99192.59;;;13.50;70.79
20710;BME280;10516;51.518;9.864;2023-05-29T00:20:03;99189.13;;;13.54;70.63
20710;BME280;10516;51.518;9.864;2023-05-29T00:22:34;99206.53;;;13.10;73.01
20710;BME280;10516;51.518;9.864;2023-05-29T00:25:05;99186.66;;;12.79;73.68
20710;BME280;10516;51.518;9.864;2023-05-29T00:27:30;99185.94;;;13.58;70.71
20710;BME280;10516;51.518;9.864;2023-05-29T00:29:57;99193.00;;;13.74;70.34
20710;BME280;10516;51.518;9.864;2023-05-29T00:32:23;99185.84;;;13.42;71.23
20710;BME280;10516;51.518;9.864;2023-05-29T00:34:48;99187.00;;;13.57;70.61
20710;BME280;10516;51.518;9.864;2023-05-29T00:37:13;99196.88;;;13.51;71.19
20710;BME280;10516;51.518;9.864;2023-05-29T00:39:39;99196.25;;;13.81;69.81
20710;BME280;10516;51.518;9.864;2023-05-29T00:42:05;99189.19;;;13.65;70.33
20710;BME280;10516;51.518;9.864;2023-05-29T00:44:30;99200.69;;;13.18;71.85
20710;BME280;10516;51.518;9.864;2023-05-29T00:46:56;99192.13;;;14.20;68.05
20710;BME280;10516;51.518;9.864;2023-05-29T00:49:22;99209.63;;;14.27;67.83
20710;BME280;10516;51.518;9.864;2023-05-29T00:51:49;99200.91;;;13.48;70.76
20710;BME280;10516;51.518;9.864;2023-05-29T00:54:20;99202.81;;;13.53;70.79
20710;BME280;10516;51.518;9.864;2023-05-29T00:56:47;99215.50;;;13.68;69.79
20710;BME280;10516;51.518;9.864;2023-05-29T00:59:13;99215.25;;;13.01;71.63
20710;BME280;10516;51.518;9.864;2023-05-29T01:01:39;99204.72;;;13.58;70.21
20710;BME280;10516;51.518;9.864;2023-05-29T01:04:05;99227.44;;;13.13;71.74
20710;BME280;10516;51.518;9.864;2023-05-29T01:06:35;99232.69;;;12.76;72.76
20710;BME280;10516;51.518;9.864;2023-05-29T01:09:00;99228.19;;;13.09;71.84
20710;BME280;10516;51.518;9.864;2023-05-29T01:14:25;99230.28;;;13.33;70.46
20710;BME280;10516;51.518;9.864;2023-05-29T01:25:11;99227.28;;;13.25;70.87
20710;BME280;10516;51.518;9.864;2023-05-29T01:27:44;99233.25;;;12.78;71.95
20710;BME280;10516;51.518;9.864;2023-05-29T01:30:12;99215.50;;;13.68;68.82
20710;BME280;10516;51.518;9.864;2023-05-29T01:32:40;99230.63;;;13.42;69.77
20710;BME280;10516;51.518;9.864;2023-05-29T01:35:06;99223.56;;;13.31;70.32
20710;BME280;10516;51.518;9.864;2023-05-29T01:37:32;99235.38;;;13.03;71.37
20710;BME280;10516;51.518;9.864;2023-05-29T01:39:57;99235.53;;;13.18;70.72
20710;BME280;10516;51.518;9.864;2023-05-29T01:42:23;99238.91;;;12.82;71.56
20710;BME280;10516;51.518;9.864;2023-05-29T01:44:49;99242.16;;;12.57;72.36
20710;BME280;10516;51.518;9.864;2023-05-29T01:47:15;99242.91;;;13.06;71.45
20710;BME280;10516;51.518;9.864;2023-05-29T01:49:41;99247.34;;;12.21;73.13
20710;BME280;10516;51.518;9.864;2023-05-29T01:52:07;99245.47;;;12.69;72.71
20710;BME280;10516;51.518;9.864;2023-05-29T01:54:33;99251.78;;;11.93;74.82
20710;BME280;10516;51.518;9.864;2023-05-29T01:56:59;99248.56;;;11.91;75.02
20710;BME280;10516;51.518;9.864;2023-05-29T01:59:26;99239.41;;;11.87;75.14
20710;BME280;10516;51.518;9.864;2023-05-29T02:01:51;99251.56;;;12.38;73.94
20710;BME280;10516;51.518;9.864;2023-05-29T02:04:17;99244.47;;;12.06;74.18
20710;BME280;10516;51.518;9.864;2023-05-29T02:06:42;99253.84;;;12.73;72.51
20710;BME280;10516;51.518;9.864;2023-05-29T02:09:07;99253.53;;;12.48;72.67
20710;BME280;10516;51.518;9.864;2023-05-29T02:11:33;99240.97;;;12.48;72.51
20710;BME280;10516;51.518;9.864;2023-05-29T02:13:58;99249.00;;;12.27;73.80
20710;BME280;10516;51.518;9.864;2023-05-29T02:16:27;99245.50;;;11.66;76.04
20710;BME280;10516;51.518;9.864;2023-05-29T02:18:52;99244.16;;;12.24;74.17
20710;BME280;10516;51.518;9.864;2023-05-29T02:21:18;99259.97;;;12.73;72.60
20710;BME280;10516;51.518;9.864;2023-05-29T02:23:43;99259.72;;;11.88;75.03
20710;BME280;10516;51.518;9.864;2023-05-29T02:26:11;99263.88;;;11.29;77.93
20710;BME280;10516;51.518;9.864;2023-05-29T02:28:37;99264.56;;;11.70;76.91
20710;BME280;10516;51.518;9.864;2023-05-29T02:31:02;99260.09;;;11.59;77.45
20710;BME280;10516;51.518;9.864;2023-05-29T02:33:28;99263.41;;;11.66;76.90
20710;BME280;10516;51.518;9.864;2023-05-29T02:35:53;99262.38;;;11.67;76.46
20710;BME280;10516;51.518;9.864;2023-05-29T02:38:19;99270.25;;;11.95;76.33
20710;BME280;10516;51.518;9.864;2023-05-29T02:40:44;99277.16;;;11.58;77.31
20710;BME280;10516;51.518;9.864;2023-05-29T02:43:13;99256.50;;;11.86;76.33
20710;BME280;10516;51.518;9.864;2023-05-29T02:45:38;99282.25;;;12.31;75.29
20710;BME280;10516;51.518;9.864;2023-05-29T02:48:04;99276.28;;;11.85;77.49
20710;BME280;10516;51.518;9.864;2023-05-29T02:50:30;99275.97;;;11.32;78.51
20710;BME280;10516;51.518;9.864;2023-05-29T02:52:55;99292.19;;;11.42;78.96
20710;BME280;10516;51.518;9.864;2023-05-29T02:55:20;99293.75;;;12.10;76.22
20710;BME280;10516;51.518;9.864;2023-05-29T02:57:46;99291.84;;;11.88;76.27
20710;BME280;10516;51.518;9.864;2023-05-29T03:00:14;99297.44;;;10.92;80.69
20710;BME280;10516;51.518;9.864;2023-05-29T03:02:39;99291.34;;;11.58;78.84
20710;BME280;10516;51.518;9.864;2023-05-29T03:05:05;99297.56;;;11.14;80.16
20710;BME280;10516;51.518;9.864;2023-05-29T03:07:31;99279.69;;;11.81;77.27
20710;BME280;10516;51.518;9.864;2023-05-29T03:09:57;99278.06;;;11.47;78.66
20710;BME280;10516;51.518;9.864;2023-05-29T03:12:22;99280.34;;;11.71;77.60
20710;BME280;10516;51.518;9.864;2023-05-29T03:14:48;99290.88;;;11.78;76.92
20710;BME280;10516;51.518;9.864;2023-05-29T03:17:13;99288.59;;;11.37;78.68
20710;BME280;10516;51.518;9.864;2023-05-29T03:19:38;99295.22;;;11.34;79.49
20710;BME280;10516;51.518;9.864;2023-05-29T03:22:04;99292.50;;;11.01;80.38
20710;BME280;10516;51.518;9.864;2023-05-29T03:24:29;99289.31;;;11.15;79.82
20710;BME280;10516;51.518;9.864;2023-05-29T03:26:55;99292.31;;;11.19;79.18
20710;BME280;10516;51.518;9.864;2023-05-29T03:29:21;99296.78;;;11.63;77.58
20710;BME280;10516;51.518;9.864;2023-05-29T03:31:46;99286.22;;;12.07;75.82
20710;BME280;10516;51.518;9.864;2023-05-29T03:34:12;99302.22;;;11.52;77.67
20710;BME280;10516;51.518;9.864;2023-05-29T03:36:38;99298.78;;;11.23;78.68
20710;BME280;10516;51.518;9.864;2023-05-29T03:39:03;99296.22;;;11.45;78.94
20710;BME280;10516;51.518;9.864;2023-05-29T03:41:29;99280.97;;;11.95;75.61
20710;BME280;10516;51.518;9.864;2023-05-29T03:43:54;99296.72;;;10.97;79.61
20710;BME280;10516;51.518;9.864;2023-05-29T03:46:20;99295.59;;;11.38;78.64
20710;BME280;10516;51.518;9.864;2023-05-29T03:48:45;99287.84;;;11.58;77.48
20710;BME280;10516;51.518;9.864;2023-05-29T03:51:10;99299.44;;;11.30;79.31
20710;BME280;10516;51.518;9.864;2023-05-29T03:53:36;99303.66;;;11.09;80.36
20710;BME280;10516;51.518;9.864;2023-05-29T03:56:01;99292.16;;;11.59;77.21
20710;BME280;10516;51.518;9.864;2023-05-29T03:58:27;99302.47;;;11.83;76.63
20710;BME280;10516;51.518;9.864;2023-05-29T04:00:52;99296.38;;;11.21;78.60
20710;BME280;10516;51.518;9.864;2023-05-29T04:03:17;99297.31;;;11.77;76.33
20710;BME280;10516;51.518;9.864;2023-05-29T04:05:43;99304.94;;;11.40;78.18
20710;BME280;10516;51.518;9.864;2023-05-29T04:08:08;99306.03;;;11.39;78.45
20710;BME280;10516;51.518;9.864;2023-05-29T04:10:34;99324.09;;;11.49;77.81
20710;BME280;10516;51.518;9.864;2023-05-29T04:13:00;99327.50;;;11.44;76.83
20710;BME280;10516;51.518;9.864;2023-05-29T04:15:26;99319.81;;;11.03;78.91
20710;BME280;10516;51.518;9.864;2023-05-29T04:17:52;99322.50;;;11.03;78.50
20710;BME280;10516;51.518;9.864;2023-05-29T04:20:17;99332.91;;;11.49;78.40
20710;BME280;10516;51.518;9.864;2023-05-29T04:22:42;99326.78;;;11.49;77.27
20710;BME280;10516;51.518;9.864;2023-05-29T04:25:08;99328.41;;;11.05;78.88
20710;BME280;10516;51.518;9.864;2023-05-29T04:27:33;99338.78;;;11.79;76.41
20710;BME280;10516;51.518;9.864;2023-05-29T04:30:06;99345.84;;;11.85;75.55
20710;BME280;10516;51.518;9.864;2023-05-29T04:32:32;99342.66;;;12.05;75.25
20710;BME280;10516;51.518;9.864;2023-05-29T04:34:58;99333.50;;;11.84;75.79
20710;BME280;10516;51.518;9.864;2023-05-29T04:37:30;99336.44;;;11.83;75.98
20710;BME280;10516;51.518;9.864;2023-05-29T04:40:06;99333.38;;;12.51;73.69
20710;BME280;10516;51.518;9.864;2023-05-29T04:42:38;99346.28;;;12.16;74.82
20710;BME280;10516;51.518;9.864;2023-05-29T04:45:06;99340.13;;;11.49;76.89
20710;BME280;10516;51.518;9.864;2023-05-29T04:47:32;99350.72;;;12.10;75.39
20710;BME280;10516;51.518;9.864;2023-05-29T04:50:02;99344.38;;;11.78;76.30
20710;BME280;10516;51.518;9.864;2023-05-29T04:52:27;99350.34;;;12.01;74.58
20710;BME280;10516;51.518;9.864;2023-05-29T04:54:54;99351.75;;;12.26;73.81
20710;BME280;10516;51.518;9.864;2023-05-29T04:57:20;99363.25;;;11.71;75.92
20710;BME280;10516;51.518;9.864;2023-05-29T04:59:45;99352.72;;;11.81;75.73
20710;BME280;10516;51.518;9.864;2023-05-29T05:02:11;99350.63;;;12.22;73.77
20710;BME280;10516;51.518;9.864;2023-05-29T05:04:36;99371.75;;;12.01;75.32
20710;BME280;10516;51.518;9.864;2023-05-29T05:07:02;99359.56;;;12.27;74.56
20710;BME280;10516;51.518;9.864;2023-05-29T05:09:28;99368.50;;;11.66;76.29
20710;BME280;10516;51.518;9.864;2023-05-29T05:11:54;99358.34;;;11.52;76.20
20710;BME280;10516;51.518;9.864;2023-05-29T05:14:20;99359.47;;;11.39;77.83
20710;BME280;10516;51.518;9.864;2023-05-29T05:16:45;99366.09;;;11.98;75.85
20710;BME280;10516;51.518;9.864;2023-05-29T05:19:10;99369.72;;;12.09;75.74
20710;BME280;10516;51.518;9.864;2023-05-29T05:21:35;99370.03;;;12.50;73.63
20710;BME280;10516;51.518;9.864;2023-05-29T05:24:01;99368.28;;;12.01;74.99
20710;BME280;10516;51.518;9.864;2023-05-29T05:26:26;99377.44;;;11.88;75.47
20710;BME280;10516;51.518;9.864;2023-05-29T05:28:52;99384.56;;;11.66;76.00
20710;BME280;10516;51.518;9.864;2023-05-29T05:31:17;99379.63;;;11.75;76.52
20710;BME280;10516;51.518;9.864;2023-05-29T05:33:42;99392.09;;;11.69;75.73
20710;BME280;10516;51.518;9.864;2023-05-29T05:36:08;99382.72;;;11.83;76.17
20710;BME280;10516;51.518;9.864;2023-05-29T05:38:33;99383.44;;;12.50;73.97
20710;BME280;10516;51.518;9.864;2023-05-29T05:40:58;99393.19;;;11.57;75.13
20710;BME280;10516;51.518;9.864;2023-05-29T05:43:24;99379.47;;;11.37;75.89
20710;BME280;10516;51.518;9.864;2023-05-29T05:45:51;99391.06;;;11.87;74.33
20710;BME280;10516;51.518;9.864;2023-05-29T05:48:16;99391.47;;;11.95;75.04
20710;BME280;10516;51.518;9.864;2023-05-29T05:50:42;99386.34;;;11.77;74.63
20710;BME280;10516;51.518;9.864;2023-05-29T05:53:07;99380.81;;;12.17;73.75
20710;BME280;10516;51.518;9.864;2023-05-29T05:55:33;99378.50;;;12.42;73.19
20710;BME280;10516;51.518;9.864;2023-05-29T05:57:58;99393.03;;;12.68;72.42
20710;BME280;10516;51.518;9.864;2023-05-29T06:00:23;99391.84;;;12.80;72.78
20710;BME280;10516;51.518;9.864;2023-05-29T06:02:49;99389.91;;;12.16;73.36
20710;BME280;10516;51.518;9.864;2023-05-29T06:05:14;99384.19;;;11.63;75.42
20710;BME280;10516;51.518;9.864;2023-05-29T06:07:40;99390.91;;;11.77;75.04
20710;BME280;10516;51.518;9.864;2023-05-29T06:10:05;99387.56;;;13.01;71.78
20710;BME280;10516;51.518;9.864;2023-05-29T06:12:31;99391.22;;;12.14;74.07
20710;BME280;10516;51.518;9.864;2023-05-29T06:14:56;99393.09;;;11.96;73.53
20710;BME280;10516;51.518;9.864;2023-05-29T06:17:22;99400.31;;;12.34;73.21
20710;BME280;10516;51.518;9.864;2023-05-29T06:19:49;99383.56;;;12.22;73.51
20710;BME280;10516;51.518;9.864;2023-05-29T06:22:14;99389.41;;;12.19;74.11
20710;BME280;10516;51.518;9.864;2023-05-29T06:24:40;99392.97;;;12.25;73.04
20710;BME280;10516;51.518;9.864;2023-05-29T06:27:06;99390.53;;;12.40;73.40
20710;BME280;10516;51.518;9.864;2023-05-29T06:29:32;99395.47;;;12.69;72.90
20710;BME280;10516;51.518;9.864;2023-05-29T06:31:58;99393.34;;;12.93;71.41
20710;BME280;10516;51.518;9.864;2023-05-29T06:34:23;99406.69;;;12.12;73.67
20710;BME280;10516;51.518;9.864;2023-05-29T06:36:48;99403.34;;;12.38;73.90
20710;BME280;10516;51.518;9.864;2023-05-29T06:39:14;99397.22;;;12.21;72.95
20710;BME280;10516;51.518;9.864;2023-05-29T06:41:40;99414.34;;;12.79;73.01
20710;BME280;10516;51.518;9.864;2023-05-29T06:44:05;99400.13;;;12.57;73.10
20710;BME280;10516;51.518;9.864;2023-05-29T06:46:31;99405.16;;;12.54;73.42
20710;BME280;10516;51.518;9.864;2023-05-29T06:48:56;99404.13;;;12.55;73.31
20710;BME280;10516;51.518;9.864;2023-05-29T06:51:21;99422.78;;;12.88;73.27
20710;BME280;10516;51.518;9.864;2023-05-29T06:53:47;99415.19;;;14.13;68.92
20710;BME280;10516;51.518;9.864;2023-05-29T06:56:12;99409.44;;;13.36;69.02
20710;BME280;10516;51.518;9.864;2023-05-29T06:58:37;99410.84;;;14.07;69.05
20710;BME280;10516;51.518;9.864;2023-05-29T07:01:03;99421.41;;;13.56;69.36
20710;BME280;10516;51.518;9.864;2023-05-29T07:03:28;99425.53;;;13.41;71.11
20710;BME280;10516;51.518;9.864;2023-05-29T07:05:54;99432.94;;;12.86;72.15
20710;BME280;10516;51.518;9.864;2023-05-29T07:08:20;99423.75;;;13.47;70.88
20710;BME280;10516;51.518;9.864;2023-05-29T07:10:45;99438.97;;;13.20;71.10
20710;BME280;10516;51.518;9.864;2023-05-29T07:13:15;99438.16;;;13.41;71.09
20710;BME280;10516;51.518;9.864;2023-05-29T07:15:40;99433.19;;;14.13;68.93
20710;BME280;10516;51.518;9.864;2023-05-29T07:18:05;99435.56;;;13.78;70.16
20710;BME280;10516;51.518;9.864;2023-05-29T07:20:31;99440.38;;;13.76;69.52
20710;BME280;10516;51.518;9.864;2023-05-29T07:22:56;99442.19;;;13.70;70.04
20710;BME280;10516;51.518;9.864;2023-05-29T07:25:21;99435.22;;;12.99;71.66
20710;BME280;10516;51.518;9.864;2023-05-29T07:27:47;99435.66;;;13.88;70.09
20710;BME280;10516;51.518;9.864;2023-05-29T07:30:12;99430.97;;;14.05;69.52
20710;BME280;10516;51.518;9.864;2023-05-29T07:32:38;99434.09;;;13.65;69.62
20710;BME280;10516;51.518;9.864;2023-05-29T07:35:04;99441.63;;;13.41;71.04
20710;BME280;10516;51.518;9.864;2023-05-29T07:37:29;99428.91;;;13.85;70.89
20710;BME280;10516;51.518;9.864;2023-05-29T07:39:55;99429.53;;;14.24;69.79
20710;BME280;10516;51.518;9.864;2023-05-29T07:42:20;99431.31;;;13.82;71.04
20710;BME280;10516;51.518;9.864;2023-05-29T07:44:46;99435.56;;;14.41;69.22
20710;BME280;10516;51.518;9.864;2023-05-29T07:47:13;99433.00;;;15.13;67.08
20710;BME280;10516;51.518;9.864;2023-05-29T07:49:38;99425.72;;;15.19;66.99
20710;BME280;10516;51.518;9.864;2023-05-29T07:52:04;99420.50;;;14.40;67.63
20710;BME280;10516;51.518;9.864;2023-05-29T07:54:33;99438.84;;;14.16;68.68
20710;BME280;10516;51.518;9.864;2023-05-29T07:57:01;99421.63;;;14.12;68.96
20710;BME280;10516;51.518;9.864;2023-05-29T07:59:37;99434.28;;;15.06;66.87
20710;BME280;10516;51.518;9.864;2023-05-29T08:02:06;99434.66;;;14.72;67.79
20710;BME280;10516;51.518;9.864;2023-05-29T08:04:32;99429.25;;;15.24;66.70
20710;BME280;10516;51.518;9.864;2023-05-29T08:06:58;99433.22;;;15.07;67.39
20710;BME280;10516;51.518;9.864;2023-05-29T08:09:24;99447.09;;;14.78;68.06
20710;BME280;10516;51.518;9.864;2023-05-29T08:11:49;99445.25;;;14.89;68.30
20710;BME280;10516;51.518;9.864;2023-05-29T08:14:15;99449.59;;;14.53;68.81
20710;BME280;10516;51.518;9.864;2023-05-29T08:16:41;99447.31;;;14.77;68.86
20710;BME280;10516;51.518;9.864;2023-05-29T08:19:07;99454.09;;;15.51;67.12
20710;BME280;10516;51.518;9.864;2023-05-29T08:21:32;99451.72;;;15.65;65.98
20710;BME280;10516;51.518;9.864;2023-05-29T08:23:58;99452.75;;;15.49;67.23
20710;BME280;10516;51.518;9.864;2023-05-29T08:26:24;99453.34;;;15.61;66.67
20710;BME280;10516;51.518;9.864;2023-05-29T08:28:49;99451.97;;;14.91;67.71
20710;BME280;10516;51.518;9.864;2023-05-29T08:31:15;99442.13;;;15.12;67.77
20710;BME280;10516;51.518;9.864;2023-05-29T08:33:40;99462.75;;;15.58;66.82
20710;BME280;10516;51.518;9.864;2023-05-29T08:36:06;99447.06;;;15.35;66.65
20710;BME280;10516;51.518;9.864;2023-05-29T08:38:31;99454.91;;;15.52;65.28
20710;BME280;10516;51.518;9.864;2023-05-29T08:40:57;99447.91;;;15.46;66.37
20710;BME280;10516;51.518;9.864;2023-05-29T08:43:30;99454.31;;;15.35;65.67
20710;BME280;10516;51.518;9.864;2023-05-29T08:45:59;99451.41;;;15.46;66.52
20710;BME280;10516;51.518;9.864;2023-05-29T08:48:27;99451.72;;;15.65;66.19
20710;BME280;10516;51.518;9.864;2023-05-29T08:50:54;99465.66;;;15.47;66.93
20710;BME280;10516;51.518;9.864;2023-05-29T08:53:23;99450.34;;;15.57;66.86
20710;BME280;10516;51.518;9.864;2023-05-29T08:55:49;99454.41;;;15.75;67.68
20710;BME280;10516;51.518;9.864;2023-05-29T08:58:18;99456.31;;;15.74;66.37
20710;BME280;10516;51.518;9.864;2023-05-29T09:00:46;99455.44;;;15.49;67.89
20710;BME280;10516;51.518;9.864;2023-05-29T09:03:12;99455.47;;;15.54;67.97
20710;BME280;10516;51.518;9.864;2023-05-29T09:05:39;99467.31;;;15.58;67.70
20710;BME280;10516;51.518;9.864;2023-05-29T09:08:06;99462.44;;;15.45;67.27
20710;BME280;10516;51.518;9.864;2023-05-29T09:10:32;99456.13;;;15.19;68.56
20710;BME280;10516;51.518;9.864;2023-05-29T09:12:58;99445.25;;;15.71;68.30
20710;BME280;10516;51.518;9.864;2023-05-29T09:15:24;99450.13;;;16.39;66.11
20710;BME280;10516;51.518;9.864;2023-05-29T09:17:51;99453.38;;;16.06;66.39
20710;BME280;10516;51.518;9.864;2023-05-29T09:20:18;99456.81;;;15.56;67.38
20710;BME280;10516;51.518;9.864;2023-05-29T09:22:59;99456.03;;;15.66;67.61
20710;BME280;10516;51.518;9.864;2023-05-29T09:25:27;99466.00;;;16.81;65.79
20710;BME280;10516;51.518;9.864;2023-05-29T09:28:04;99452.84;;;16.39;65.79
20710;BME280;10516;51.518;9.864;2023-05-29T09:32:59;99448.78;;;16.02;66.16
20710;BME280;10516;51.518;9.864;2023-05-29T09:35:26;99468.44;;;16.42;66.00
20710;BME280;10516;51.518;9.864;2023-05-29T09:37:52;99454.75;;;16.14;66.44
20710;BME280;10516;51.518;9.864;2023-05-29T09:40:17;99469.81;;;16.15;66.00
20710;BME280;10516;51.518;9.864;2023-05-29T09:42:43;99471.38;;;16.81;65.16
20710;BME280;10516;51.518;9.864;2023-05-29T09:45:08;99475.72;;;16.07;65.10
20710;BME280;10516;51.518;9.864;2023-05-29T09:47:34;99477.06;;;16.49;65.33
20710;BME280;10516;51.518;9.864;2023-05-29T09:50:00;99478.97;;;16.09;65.60
20710;BME280;10516;51.518;9.864;2023-05-29T09:52:29;99473.56;;;16.19;64.24
20710;BME280;10516;51.518;9.864;2023-05-29T09:54:55;99475.19;;;16.40;64.16
20710;BME280;10516;51.518;9.864;2023-05-29T09:57:22;99463.91;;;17.32;63.09
20710;BME280;10516;51.518;9.864;2023-05-29T09:59:49;99464.94;;;17.46;62.57
20710;BME280;10516;51.518;9.864;2023-05-29T10:02:17;99460.16;;;17.28;63.59
20710;BME280;10516;51.518;9.864;2023-05-29T10:04:43;99465.44;;;17.48;63.58
20710;BME280;10516;51.518;9.864;2023-05-29T10:07:28;99452.25;;;17.42;63.63
20710;BME280;10516;51.518;9.864;2023-05-29T10:10:02;99460.03;;;18.31;61.48
20710;BME280;10516;51.518;9.864;2023-05-29T10:12:29;99459.75;;;17.60;63.25
20710;BME280;10516;51.518;9.864;2023-05-29T10:14:59;99440.78;;;17.16;62.20
20710;BME280;10516;51.518;9.864;2023-05-29T10:17:52;99455.56;;;17.29;61.82
20710;BME280;10516;51.518;9.864;2023-05-29T10:20:20;99464.03;;;18.05;61.16
20710;BME280;10516;51.518;9.864;2023-05-29T10:22:50;99465.75;;;17.42;61.92
20710;BME280;10516;51.518;9.864;2023-05-29T10:25:19;99474.38;;;17.54;61.68
20710;BME280;10516;51.518;9.864;2023-05-29T10:27:45;99466.72;;;17.02;62.00
20710;BME280;10516;51.518;9.864;2023-05-29T10:30:39;99450.03;;;17.97;62.28
20710;BME280;10516;51.518;9.864;2023-05-29T10:38:29;99455.81;;;18.20;61.13
20710;BME280;10516;51.518;9.864;2023-05-29T10:40:54;99455.19;;;17.55;62.53
20710;BME280;10516;51.518;9.864;2023-05-29T10:43:34;99454.06;;;17.61;62.34
20710;BME280;10516;51.518;9.864;2023-05-29T10:46:02;99446.28;;;17.50;61.60
20710;BME280;10516;51.518;9.864;2023-05-29T10:50:55;99447.66;;;18.58;60.62
20710;BME280;10516;51.518;9.864;2023-05-29T10:53:31;99442.34;;;18.48;59.69
20710;BME280;10516;51.518;9.864;2023-05-29T10:55:58;99448.06;;;18.94;58.47
20710;BME280;10516;51.518;9.864;2023-05-29T10:58:25;99442.81;;;18.55;59.33
20710;BME280;10516;51.518;9.864;2023-05-29T11:00:53;99446.00;;;19.10;59.43
20710;BME280;10516;51.518;9.864;2023-05-29T11:03:24;99436.03;;;20.22;56.92
20710;BME280;10516;51.518;9.864;2023-05-29T11:06:04;99446.97;;;18.72;58.45
20710;BME280;10516;51.518;9.864;2023-05-29T11:08:53;99444.69;;;19.68;57.48
20710;BME280;10516;51.518;9.864;2023-05-29T11:13:54;99430.19;;;19.40;57.55
20710;BME280;10516;51.518;9.864;2023-05-29T11:16:40;99446.41;;;18.75;58.28
20710;BME280;10516;51.518;9.864;2023-05-29T11:19:08;99443.00;;;19.54;57.71
20710;BME280;10516;51.518;9.864;2023-05-29T11:24:24;99435.88;;;19.95;57.36
20710;BME280;10516;51.518;9.864;2023-05-29T11:26:51;99421.38;;;19.72;56.42
20710;BME280;10516;51.518;9.864;2023-05-29T11:29:24;99422.59;;;20.31;56.94
20710;BME280;10516;51.518;9.864;2023-05-29T11:32:02;99423.78;;;19.31;57.68
20710;BME280;10516;51.518;9.864;2023-05-29T11:34:29;99420.63;;;19.67;57.90
20710;BME280;10516;51.518;9.864;2023-05-29T11:37:04;99427.88;;;19.53;58.09
20710;BME280;10516;51.518;9.864;2023-05-29T11:39:30;99420.13;;;19.46;57.98
20710;BME280;10516;51.518;9.864;2023-05-29T11:41:56;99410.78;;;19.71;58.10
20710;BME280;10516;51.518;9.864;2023-05-29T11:44:25;99408.88;;;19.90;56.90
20710;BME280;10516;51.518;9.864;2023-05-29T11:47:04;99426.94;;;19.94;57.40
20710;BME280;10516;51.518;9.864;2023-05-29T11:49:31;99426.94;;;20.45;55.79
20710;BME280;10516;51.518;9.864;2023-05-29T11:52:12;99411.09;;;20.20;55.89
20710;BME280;10516;51.518;9.864;2023-05-29T11:54:39;99415.09;;;20.09;56.81
20710;BME280;10516;51.518;9.864;2023-05-29T11:57:05;99419.19;;;20.39;56.16
20710;BME280;10516;51.518;9.864;2023-05-29T11:59:32;99425.94;;;20.41;54.74
20710;BME280;10516;51.518;9.864;2023-05-29T12:01:59;99410.50;;;19.91;55.07
20710;BME280;10516;51.518;9.864;2023-05-29T12:04:27;99424.81;;;20.10;55.34
20710;BME280;10516;51.518;9.864;2023-05-29T12:06:52;99416.94;;;19.58;56.66
20710;BME280;10516;51.518;9.864;2023-05-29T12:09:28;99416.78;;;20.18;56.08
20710;BME280;10516;51.518;9.864;2023-05-29T12:11:54;99412.44;;;20.04;55.79
20710;BME280;10516;51.518;9.864;2023-05-29T12:14:26;99416.13;;;21.00;54.56
20710;BME280;10516;51.518;9.864;2023-05-29T12:16:51;99431.19;;;20.65;54.43
20710;BME280;10516;51.518;9.864;2023-05-29T12:19:16;99429.72;;;21.13;54.81
20710;BME280;10516;51.518;9.864;2023-05-29T12:21:42;99424.56;;;20.84;54.58
20710;BME280;10516;51.518;9.864;2023-05-29T12:24:09;99412.13;;;21.24;53.94
20710;BME280;10516;51.518;9.864;2023-05-29T12:26:35;99411.31;;;21.24;53.07
20710;BME280;10516;51.518;9.864;2023-05-29T12:29:03;99426.16;;;20.58;53.32
20710;BME280;10516;51.518;9.864;2023-05-29T12:31:29;99431.31;;;20.87;53.99
20710;BME280;10516;51.518;9.864;2023-05-29T12:34:07;99424.22;;;21.54;53.84
20710;BME280;10516;51.518;9.864;2023-05-29T12:36:33;99426.47;;;21.74;52.19
20710;BME280;10516;51.518;9.864;2023-05-29T12:38:58;99422.22;;;21.82;51.75
20710;BME280;10516;51.518;9.864;2023-05-29T12:41:43;99429.03;;;22.15;52.10
20710;BME280;10516;51.518;9.864;2023-05-29T12:44:09;99408.94;;;21.80;51.03
20710;BME280;10516;51.518;9.864;2023-05-29T12:46:41;99405.31;;;22.29;51.71
20710;BME280;10516;51.518;9.864;2023-05-29T12:49:17;99414.50;;;22.72;49.86
20710;BME280;10516;51.518;9.864;2023-05-29T12:51:46;99411.53;;;21.49;51.49
20710;BME280;10516;51.518;9.864;2023-05-29T12:54:13;99409.72;;;21.94;51.32
20710;BME280;10516;51.518;9.864;2023-05-29T12:56:39;99402.63;;;21.71;50.54
20710;BME280;10516;51.518;9.864;2023-05-29T12:59:08;99415.97;;;21.59;50.60
20710;BME280;10516;51.518;9.864;2023-05-29T13:01:34;99401.00;;;21.48;50.41
20710;BME280;10516;51.518;9.864;2023-05-29T13:04:00;99399.09;;;21.48;52.35
20710;BME280;10516;51.518;9.864;2023-05-29T13:06:25;99398.63;;;21.69;50.74
20710;BME280;10516;51.518;9.864;2023-05-29T13:08:51;99402.50;;;21.90;50.68
20710;BME280;10516;51.518;9.864;2023-05-29T13:11:16;99397.75;;;21.59;51.29
20710;BME280;10516;51.518;9.864;2023-05-29T13:13:42;99397.31;;;21.66;50.77
20710;BME280;10516;51.518;9.864;2023-05-29T13:16:07;99404.50;;;21.84;50.29
20710;BME280;10516;51.518;9.864;2023-05-29T13:18:33;99411.09;;;21.70;49.59
20710;BME280;10516;51.518;9.864;2023-05-29T13:20:59;99407.81;;;21.95;50.72
20710;BME280;10516;51.518;9.864;2023-05-29T13:23:24;99398.28;;;22.06;49.38
20710;BME280;10516;51.518;9.864;2023-05-29T13:25:50;99408.44;;;22.45;50.37